createdAt,value
2022-11-23T00:00:09.036Z,2.90
2022-11-23T00:02:39.857Z,2.83
2022-11-23T00:05:13.525Z,3.10
2022-11-23T00:07:43.610Z,2.42
2022-11-23T00:10:14.691Z,2.95
2022-11-23T00:12:45.334Z,2.42
2022-11-23T00:15:18.186Z,2.33
2022-11-23T00:17:50.789Z,2.63
2022-11-23T00:20:23.706Z,2.35
2022-11-23T00:22:54.985Z,2.88
2022-11-23T00:25:25.193Z,2.70
2022-11-23T00:27:55.778Z,2.60
2022-11-23T00:30:26.375Z,2.80
2022-11-23T00:32:58.621Z,2.90
2022-11-23T00:35:30.600Z,2.88
2022-11-23T00:38:00.825Z,2.70
2022-11-23T00:40:31.437Z,2.75
2022-11-23T00:43:02.003Z,2.50
2022-11-23T00:45:32.958Z,2.53
2022-11-23T00:48:03.113Z,2.50
2022-11-23T00:50:35.417Z,2.35
2022-11-23T00:53:07.531Z,2.40
2022-11-23T00:55:38.193Z,2.20
2022-11-23T00:58:08.192Z,2.58
2022-11-23T01:00:38.043Z,2.50
2022-11-23T01:03:08.707Z,2.38
2022-11-23T01:05:42.593Z,2.30
2022-11-23T01:08:13.450Z,2.20
2022-11-23T01:10:44.288Z,2.13
2022-11-23T01:13:16.493Z,2.15
2022-11-23T01:15:53.603Z,2.20
2022-11-23T01:18:24.193Z,2.30
2022-11-23T01:20:57.791Z,2.38
2022-11-23T01:23:27.984Z,2.20
2022-11-23T01:25:58.054Z,2.13
2022-11-23T01:28:29.165Z,2.22
2022-11-23T01:31:06.798Z,2.40
2022-11-23T01:33:37.385Z,2.30
2022-11-23T01:36:16.999Z,2.08
2022-11-23T01:38:48.656Z,2.03
2022-11-23T01:41:22.463Z,2.25
2022-11-23T01:43:53.841Z,2.17
2022-11-23T01:46:25.293Z,1.90
2022-11-23T01:49:00.436Z,2.30
2022-11-23T01:51:38.278Z,2.10
2022-11-23T01:54:14.051Z,2.35
2022-11-23T01:56:48.871Z,2.30
2022-11-23T01:59:22.888Z,2.15
2022-11-23T02:01:53.588Z,2.05
2022-11-23T02:04:32.492Z,1.90
2022-11-23T02:07:07.552Z,2.08
2022-11-23T02:09:40.363Z,2.40
2022-11-23T02:12:15.090Z,2.15
2022-11-23T02:14:46.845Z,2.10
2022-11-23T02:17:17.906Z,2.15
2022-11-23T02:20:05.997Z,2.17
2022-11-23T02:22:52.333Z,2.20
2022-11-23T02:25:36.504Z,2.30
2022-11-23T02:28:10.730Z,2.10
2022-11-23T02:30:43.298Z,2.00
2022-11-23T02:33:14.350Z,2.10
2022-11-23T02:35:52.262Z,2.10
2022-11-23T02:38:26.008Z,2.33
2022-11-23T02:40:56.944Z,2.10
2022-11-23T02:43:31.173Z,2.05
2022-11-23T02:46:06.393Z,2.20
2022-11-23T02:48:37.550Z,2.10
2022-11-23T02:51:07.373Z,2.15
2022-11-23T02:53:37.649Z,1.98
2022-11-23T02:56:08.002Z,2.00
2022-11-23T02:58:40.787Z,1.90
2022-11-23T03:01:10.819Z,2.00
2022-11-23T03:03:41.597Z,2.00
2022-11-23T03:06:12.391Z,2.05
2022-11-23T03:08:42.611Z,1.95
2022-11-23T03:11:13.248Z,1.95
2022-11-23T03:13:45.741Z,2.20
2022-11-23T03:16:16.796Z,2.00
2022-11-23T03:18:47.636Z,2.50
2022-11-23T03:21:18.256Z,1.67
2022-11-23T03:23:49.091Z,2.05
2022-11-23T03:26:19.842Z,2.30
2022-11-23T03:28:53.384Z,2.20
2022-11-23T03:31:23.840Z,2.10
2022-11-23T03:33:54.433Z,2.08
2022-11-23T03:36:24.464Z,2.05
2022-11-23T03:38:55.137Z,2.33
2022-11-23T03:41:25.693Z,2.08
2022-11-23T03:43:58.193Z,2.10
2022-11-23T03:46:28.129Z,2.05
2022-11-23T03:48:59.030Z,2.33
2022-11-23T03:51:29.341Z,2.30
2022-11-23T03:53:59.893Z,2.13
2022-11-23T03:56:30.648Z,2.45
2022-11-23T03:59:03.595Z,2.20
2022-11-23T04:01:34.063Z,2.30
2022-11-23T04:04:04.702Z,2.35
2022-11-23T04:06:34.705Z,2.17
2022-11-23T04:09:05.425Z,2.20
2022-11-23T04:11:35.979Z,2.00
2022-11-23T04:14:07.670Z,2.47
2022-11-23T04:16:37.813Z,2.22
2022-11-23T04:19:08.246Z,2.25
2022-11-23T04:21:38.682Z,2.30
2022-11-23T04:24:09.493Z,2.17
2022-11-23T04:26:41.011Z,2.20
2022-11-23T04:29:14.074Z,2.00
2022-11-23T04:31:44.032Z,1.95
2022-11-23T04:34:14.147Z,1.98
2022-11-23T04:36:44.676Z,2.22
2022-11-23T04:39:15.855Z,2.20
2022-11-23T04:41:46.388Z,2.20
2022-11-23T04:44:21.984Z,2.47
2022-11-23T04:46:52.827Z,2.38
2022-11-23T04:49:23.439Z,2.60
2022-11-23T04:51:53.562Z,2.15
2022-11-23T04:54:24.430Z,2.35
2022-11-23T04:56:54.776Z,2.10
2022-11-23T04:59:27.109Z,2.33
2022-11-23T05:01:57.951Z,2.20
2022-11-23T05:04:28.302Z,2.55
2022-11-23T05:06:58.715Z,2.55
2022-11-23T05:09:29.358Z,2.45
2022-11-23T05:11:59.957Z,2.70
2022-11-23T05:14:33.236Z,2.63
2022-11-23T05:17:03.679Z,2.70
2022-11-23T05:19:34.358Z,2.40
2022-11-23T05:22:04.995Z,2.40
2022-11-23T05:24:35.590Z,2.28
2022-11-23T05:27:06.715Z,2.40
2022-11-23T05:29:39.803Z,2.47
2022-11-23T05:32:10.450Z,2.10
2022-11-23T05:34:46.184Z,2.30
2022-11-23T05:37:16.967Z,1.92
2022-11-23T05:39:47.817Z,2.20
2022-11-23T05:42:18.380Z,2.10
2022-11-23T05:44:50.642Z,2.20
2022-11-23T05:47:21.019Z,2.25
2022-11-23T05:49:51.979Z,2.10
2022-11-23T05:52:22.100Z,1.83
2022-11-23T05:54:52.340Z,1.95
2022-11-23T05:57:23.395Z,1.80
2022-11-23T05:59:57.193Z,1.73
2022-11-23T06:02:27.217Z,2.08
2022-11-23T06:04:56.985Z,1.88
2022-11-23T06:07:27.282Z,1.95
2022-11-23T06:09:59.912Z,1.90
2022-11-23T06:12:31.469Z,1.95
2022-11-23T06:15:03.998Z,1.90
2022-11-23T06:17:34.440Z,2.15
2022-11-23T06:20:04.912Z,1.88
2022-11-23T06:22:35.489Z,1.73
2022-11-23T06:25:06.185Z,1.92
2022-11-23T06:27:36.771Z,1.70
2022-11-23T06:30:10.860Z,1.90
2022-11-23T06:32:41.285Z,1.70
2022-11-23T06:35:12.226Z,1.75
2022-11-23T06:37:43.047Z,1.45
2022-11-23T06:40:15.125Z,1.52
2022-11-23T06:42:45.809Z,1.60
2022-11-23T06:45:18.224Z,1.27
2022-11-23T06:47:48.916Z,1.50
2022-11-23T06:50:20.016Z,1.52
2022-11-23T06:52:50.516Z,1.63
2022-11-23T06:55:22.038Z,1.50
2022-11-23T06:57:53.090Z,1.65
2022-11-23T07:00:26.084Z,1.48
2022-11-23T07:02:57.898Z,1.50
2022-11-23T07:05:28.977Z,1.30
2022-11-23T07:08:00.471Z,1.38
2022-11-23T07:10:30.651Z,1.27
2022-11-23T07:13:07.679Z,1.40
2022-11-23T07:15:40.628Z,1.40
2022-11-23T07:18:14.615Z,1.52
2022-11-23T07:20:44.727Z,1.45
2022-11-23T07:23:15.537Z,1.50
2022-11-23T07:25:46.786Z,1.30
2022-11-23T07:28:16.816Z,1.70
2022-11-23T07:30:53.240Z,1.38
2022-11-23T07:33:23.724Z,1.17
2022-11-23T07:35:56.744Z,1.67
2022-11-23T07:38:26.743Z,1.60
2022-11-23T07:41:09.956Z,1.60
2022-11-23T07:43:41.931Z,1.23
2022-11-23T07:46:13.936Z,1.15
2022-11-23T07:49:00.379Z,1.30
2022-11-23T07:51:30.580Z,1.40
2022-11-23T07:54:03.368Z,1.30
2022-11-23T07:56:36.695Z,1.10
2022-11-23T07:59:10.459Z,1.15
2022-11-23T08:01:42.403Z,1.17
2022-11-23T08:04:15.324Z,0.88
2022-11-23T08:06:45.947Z,1.00
2022-11-23T08:09:17.406Z,1.10
2022-11-23T08:11:48.032Z,0.90
2022-11-23T08:14:18.813Z,1.00
2022-11-23T08:16:55.864Z,0.82
2022-11-23T08:19:25.850Z,0.88
2022-11-23T08:21:56.443Z,0.65
2022-11-23T08:24:26.951Z,0.75
2022-11-23T08:26:59.820Z,0.90
2022-11-23T08:29:32.988Z,0.80
2022-11-23T08:32:05.639Z,1.10
2022-11-23T08:34:41.912Z,1.02
2022-11-23T08:37:13.034Z,0.75
2022-11-23T08:39:43.033Z,1.10
2022-11-23T08:42:15.301Z,0.90
2022-11-23T08:44:45.381Z,0.95
2022-11-23T08:47:20.579Z,1.13
2022-11-23T08:49:50.523Z,1.23
2022-11-23T08:52:21.235Z,0.90
2022-11-23T08:54:51.946Z,1.00
2022-11-23T08:57:27.813Z,1.17
2022-11-23T08:59:58.171Z,0.98
2022-11-23T09:02:30.879Z,1.30
2022-11-23T09:05:01.692Z,1.20
2022-11-23T09:07:32.904Z,1.10
2022-11-23T09:10:03.160Z,1.38
2022-11-23T09:12:33.655Z,1.13
2022-11-23T09:15:04.454Z,1.30
2022-11-23T09:17:36.449Z,1.30
2022-11-23T09:20:10.555Z,1.17
2022-11-23T09:22:41.498Z,1.17
2022-11-23T09:25:11.661Z,1.20
2022-11-23T09:27:42.355Z,1.27
2022-11-23T09:30:14.957Z,1.48
2022-11-23T09:32:47.063Z,1.70
2022-11-23T09:35:17.635Z,1.60
2022-11-23T09:37:50.545Z,1.65
2022-11-23T09:40:22.053Z,1.50
2022-11-23T09:43:31.463Z,1.45
2022-11-23T09:46:14.493Z,1.30
2022-11-23T09:49:10.325Z,1.30
2022-11-23T09:51:44.268Z,1.50
2022-11-23T09:54:27.146Z,1.60
2022-11-23T09:57:02.169Z,1.63
2022-11-23T09:59:46.004Z,1.52
2022-11-23T10:02:29.342Z,1.50
2022-11-23T10:05:03.937Z,1.50
2022-11-23T10:07:51.925Z,1.60
2022-11-23T10:10:42.896Z,1.70
2022-11-23T10:13:34.630Z,1.65
2022-11-23T10:16:27.616Z,1.50
2022-11-23T10:19:06.726Z,1.70
2022-11-23T10:21:53.657Z,1.30
2022-11-23T10:24:34.096Z,1.50
2022-11-23T10:27:14.593Z,1.52
2022-11-23T10:29:46.043Z,1.50
2022-11-23T10:32:35.527Z,1.58
2022-11-23T10:35:14.620Z,1.48
2022-11-23T10:37:47.551Z,1.70
2022-11-23T10:40:24.549Z,1.48
2022-11-23T10:43:01.990Z,1.65
2022-11-23T10:45:36.859Z,1.60
2022-11-23T10:48:07.067Z,1.70
2022-11-23T10:50:41.268Z,1.60
2022-11-23T10:53:28.901Z,1.73
2022-11-23T10:56:04.593Z,1.90
2022-11-23T10:58:48.815Z,1.90
2022-11-23T11:01:24.882Z,1.80
2022-11-23T11:03:56.931Z,1.85
2022-11-23T11:06:30.843Z,1.95
2022-11-23T11:09:13.290Z,1.75
2022-11-23T11:11:55.165Z,2.10
2022-11-23T11:14:25.724Z,1.80
2022-11-23T11:16:59.568Z,1.67
2022-11-23T11:19:33.964Z,1.88
2022-11-23T11:22:27.458Z,1.75
2022-11-23T11:25:00.078Z,1.60
2022-11-23T11:27:36.187Z,1.65
2022-11-23T11:30:22.778Z,1.73
2022-11-23T11:33:02.204Z,1.85
2022-11-23T11:35:37.256Z,1.70
2022-11-23T11:38:19.801Z,1.50
2022-11-23T11:40:54.269Z,1.40
2022-11-23T11:43:39.168Z,1.83
2022-11-23T11:46:28.980Z,1.52
2022-11-23T11:49:09.839Z,1.60
2022-11-23T11:51:45.642Z,1.50
2022-11-23T11:54:28.093Z,1.60
2022-11-23T11:57:09.203Z,1.60
2022-11-23T11:59:47.079Z,1.55
2022-11-23T12:02:27.803Z,1.42
2022-11-23T12:05:27.082Z,1.63
2022-11-23T12:08:08.949Z,1.52
2022-11-23T12:10:46.962Z,1.30
2022-11-23T12:13:22.475Z,1.58
2022-11-23T12:16:06.245Z,1.40
2022-11-23T12:19:05.960Z,1.60
2022-11-23T12:22:13.766Z,1.50
2022-11-23T12:25:06.299Z,1.30
2022-11-23T12:27:50.330Z,1.23
2022-11-23T12:30:32.554Z,1.23
2022-11-23T12:33:52.961Z,1.17
2022-11-23T12:36:53.517Z,1.10
2022-11-23T12:40:09.754Z,1.27
2022-11-23T12:42:48.718Z,1.30
2022-11-23T12:45:38.655Z,1.35
2022-11-23T12:48:31.206Z,1.50
2022-11-23T12:51:17.254Z,1.38
2022-11-23T12:54:07.891Z,1.27
2022-11-23T12:57:08.593Z,1.13
2022-11-23T12:59:51.354Z,0.90
2022-11-23T13:03:27.230Z,1.17
2022-11-23T13:07:20.422Z,1.00
2022-11-23T13:10:06.403Z,1.10
2022-11-23T13:13:19.632Z,0.98
2022-11-23T13:16:24.320Z,0.77
2022-11-23T13:19:26.654Z,1.10
2022-11-23T13:21:59.570Z,1.20
2022-11-23T13:24:33.233Z,1.20
2022-11-23T13:27:48.295Z,1.05
2022-11-23T13:33:42.348Z,0.85
2022-11-23T13:36:19.717Z,0.70
2022-11-23T13:38:55.195Z,0.98
2022-11-23T13:42:08.298Z,0.90
2022-11-23T13:44:39.841Z,1.10
2022-11-23T13:47:22.158Z,1.33
2022-11-23T13:49:55.390Z,1.02
2022-11-23T13:52:37.102Z,1.10
2022-11-23T13:55:30.234Z,1.00
2022-11-23T13:58:42.450Z,1.23
2022-11-23T14:01:13.421Z,0.93
2022-11-23T14:03:58.778Z,1.00
2022-11-23T14:06:52.571Z,1.08
2022-11-23T14:09:30.448Z,1.08
2022-11-23T14:12:30.566Z,1.00
2022-11-23T14:15:14.692Z,1.15
2022-11-23T14:18:13.597Z,1.27
2022-11-23T14:21:02.272Z,1.10
2022-11-23T14:24:18.658Z,1.10
2022-11-23T14:27:39.529Z,1.10
2022-11-23T14:30:24.930Z,1.15
2022-11-23T14:33:14.258Z,1.10
2022-11-23T14:35:57.245Z,1.10
2022-11-23T14:39:07.568Z,0.88
2022-11-23T14:41:41.669Z,0.90
2022-11-23T14:44:19.304Z,1.42
2022-11-23T14:47:10.660Z,0.90
2022-11-23T14:49:51.959Z,1.00
2022-11-23T14:52:26.593Z,1.23
2022-11-23T14:55:02.660Z,1.00
2022-11-23T14:57:42.416Z,0.93
2022-11-23T15:00:31.827Z,1.17
2022-11-23T15:03:48.895Z,1.00
2022-11-23T15:06:20.625Z,0.98
2022-11-23T15:09:06.003Z,0.90
2022-11-23T15:11:40.350Z,1.08
2022-11-23T15:14:22.934Z,1.13
2022-11-23T15:16:53.125Z,1.20
2022-11-23T15:19:32.463Z,1.00
2022-11-23T15:22:04.118Z,1.15
2022-11-23T15:24:35.885Z,1.02
2022-11-23T15:27:12.597Z,1.08
2022-11-23T15:29:56.068Z,1.20
2022-11-23T15:32:32.636Z,0.95
2022-11-23T15:35:12.759Z,1.02
2022-11-23T15:37:49.765Z,0.98
2022-11-23T15:40:21.697Z,1.20
2022-11-23T15:42:53.624Z,0.82
2022-11-23T15:46:00.259Z,1.00
2022-11-23T15:48:35.672Z,1.13
2022-11-23T15:51:11.680Z,1.20
2022-11-23T15:53:52.489Z,0.98
2022-11-23T15:56:29.422Z,1.10
2022-11-23T15:59:02.743Z,0.90
2022-11-23T16:01:33.786Z,0.98
2022-11-23T16:04:05.360Z,1.20
2022-11-23T16:06:41.984Z,0.73
2022-11-23T16:09:55.758Z,1.05
2022-11-23T16:12:30.248Z,0.85
2022-11-23T16:15:39.872Z,0.90
2022-11-23T16:18:25.540Z,1.00
2022-11-23T16:21:01.725Z,0.93
2022-11-23T16:23:47.151Z,1.08
2022-11-23T16:26:18.644Z,1.08
2022-11-23T16:28:55.482Z,1.23
2022-11-23T16:31:37.910Z,1.20
2022-11-23T16:34:15.239Z,1.10
2022-11-23T16:36:45.400Z,0.98
2022-11-23T16:39:17.893Z,0.90
2022-11-23T16:41:48.405Z,1.10
2022-11-23T16:44:18.493Z,1.10
2022-11-23T16:46:49.882Z,1.25
2022-11-23T16:49:23.027Z,1.20
2022-11-23T16:51:57.491Z,1.35
2022-11-23T16:54:30.847Z,1.13
2022-11-23T16:57:01.048Z,1.08
2022-11-23T16:59:35.568Z,1.00
2022-11-23T17:02:06.772Z,1.20
2022-11-23T17:04:37.690Z,0.90
2022-11-23T17:07:08.038Z,1.17
2022-11-23T17:09:40.931Z,1.25
2022-11-23T17:12:19.295Z,1.20
2022-11-23T17:14:51.794Z,1.08
2022-11-23T17:17:24.688Z,0.95
2022-11-23T17:19:59.674Z,1.17
2022-11-23T17:22:33.092Z,0.98
2022-11-23T17:25:08.976Z,0.98
2022-11-23T17:27:46.696Z,1.05
2022-11-23T17:30:22.323Z,1.38
2022-11-23T17:32:52.994Z,1.35
2022-11-23T17:35:23.705Z,1.38
2022-11-23T17:37:54.260Z,1.30
2022-11-23T17:40:27.776Z,1.40
2022-11-23T17:42:57.935Z,1.40
2022-11-23T17:45:28.557Z,1.50
2022-11-23T17:48:03.119Z,1.48
2022-11-23T17:50:34.557Z,1.33
2022-11-23T17:53:04.840Z,1.40
2022-11-23T17:55:37.341Z,1.20
2022-11-23T17:58:07.979Z,1.30
2022-11-23T18:00:40.275Z,1.17
2022-11-23T18:03:10.509Z,1.50
2022-11-23T18:05:41.175Z,1.40
2022-11-23T18:08:13.734Z,1.35
2022-11-23T18:10:45.384Z,1.30
2022-11-23T18:13:16.018Z,1.40
2022-11-23T18:15:46.510Z,1.27
2022-11-23T18:18:16.568Z,1.38
2022-11-23T18:20:47.105Z,1.30
2022-11-23T18:23:16.989Z,1.35
2022-11-23T18:26:00.780Z,1.40
2022-11-23T18:28:32.392Z,1.40
2022-11-23T18:31:03.054Z,1.40
2022-11-23T18:33:33.767Z,1.25
2022-11-23T18:36:05.740Z,1.27
2022-11-23T18:38:37.487Z,1.23
2022-11-23T18:41:10.387Z,1.48
2022-11-23T18:43:41.127Z,1.30
2022-11-23T18:46:13.199Z,1.50
2022-11-23T18:48:44.112Z,1.48
2022-11-23T18:51:14.693Z,1.33
2022-11-23T18:53:48.127Z,1.30
2022-11-23T18:56:21.994Z,1.63
2022-11-23T18:58:53.168Z,1.33
2022-11-23T19:01:25.447Z,1.17
2022-11-23T19:03:56.955Z,1.60
2022-11-23T19:06:27.904Z,1.38
2022-11-23T19:08:58.882Z,1.42
2022-11-23T19:11:32.917Z,1.63
2022-11-23T19:14:03.815Z,1.60
2022-11-23T19:16:35.612Z,1.60
2022-11-23T19:19:08.315Z,1.55
2022-11-23T19:21:39.629Z,1.67
2022-11-23T19:24:11.724Z,1.67
2022-11-23T19:26:44.216Z,1.55
2022-11-23T19:29:15.275Z,1.42
2022-11-23T19:31:45.408Z,1.83
2022-11-23T19:34:17.824Z,1.38
2022-11-23T19:36:49.057Z,1.65
2022-11-23T19:39:19.941Z,1.58
2022-11-23T19:41:52.617Z,1.65
2022-11-23T19:44:23.226Z,1.50
2022-11-23T19:46:54.065Z,1.70
2022-11-23T19:49:24.872Z,1.55
2022-11-23T19:51:56.527Z,1.77
2022-11-23T19:54:27.246Z,1.48
2022-11-23T19:56:59.251Z,1.70
2022-11-23T19:59:29.414Z,1.67
2022-11-23T20:02:00.169Z,1.63
2022-11-23T20:04:30.889Z,1.98
2022-11-23T20:07:01.366Z,1.85
2022-11-23T20:09:31.824Z,1.63
2022-11-23T20:12:04.110Z,1.80
2022-11-23T20:14:34.180Z,1.80
2022-11-23T20:17:04.885Z,1.90
2022-11-23T20:19:35.611Z,1.73
2022-11-23T20:22:06.439Z,2.00
2022-11-23T20:24:37.049Z,1.90
2022-11-23T20:27:09.837Z,1.83
2022-11-23T20:29:42.024Z,2.05
2022-11-23T20:32:13.551Z,1.75
2022-11-23T20:34:44.374Z,2.00
2022-11-23T20:37:14.133Z,1.73
2022-11-23T20:39:44.849Z,1.80
2022-11-23T20:42:17.400Z,1.98
2022-11-23T20:44:48.108Z,2.15
2022-11-23T20:47:18.847Z,2.20
2022-11-23T20:49:48.718Z,2.20
2022-11-23T20:52:18.788Z,2.00
2022-11-23T20:54:49.664Z,2.03
2022-11-23T20:57:22.690Z,2.22
2022-11-23T20:59:53.797Z,2.17
2022-11-23T21:02:23.874Z,2.13
2022-11-23T21:04:55.264Z,1.80
2022-11-23T21:07:27.942Z,1.90
2022-11-23T21:09:58.857Z,1.70
2022-11-23T21:12:50.630Z,2.03
2022-11-23T21:15:21.227Z,1.80
2022-11-23T21:17:52.723Z,1.85
2022-11-23T21:20:23.313Z,2.00
2022-11-23T21:22:54.355Z,2.10
2022-11-23T21:25:24.726Z,2.03
2022-11-23T21:27:56.950Z,2.10
2022-11-23T21:30:27.009Z,1.95
2022-11-23T21:32:57.806Z,1.90
2022-11-23T21:35:27.945Z,2.00
2022-11-23T21:37:58.798Z,2.30
2022-11-23T21:40:28.924Z,1.92
2022-11-23T21:43:00.809Z,1.90
2022-11-23T21:45:31.442Z,1.80
2022-11-23T21:48:02.183Z,1.90
2022-11-23T21:50:32.813Z,1.80
2022-11-23T21:53:03.919Z,2.10
2022-11-23T21:55:35.004Z,1.63
2022-11-23T21:58:07.106Z,1.83
2022-11-23T22:00:38.623Z,1.85
2022-11-23T22:03:08.763Z,1.77
2022-11-23T22:05:39.686Z,1.83
2022-11-23T22:11:00.640Z,1.92
2022-11-23T22:13:36.742Z,1.95
2022-11-23T22:16:19.480Z,1.70
2022-11-23T22:18:55.394Z,2.10
2022-11-23T22:21:30.024Z,1.85
2022-11-23T22:24:02.551Z,1.98
2022-11-23T22:26:33.277Z,1.95
2022-11-23T22:29:07.231Z,1.80
2022-11-23T22:31:38.233Z,2.35
2022-11-23T22:34:13.279Z,2.00
2022-11-23T22:36:43.877Z,1.92
2022-11-23T22:39:14.064Z,1.58
2022-11-23T22:41:44.744Z,1.80
2022-11-23T22:44:16.720Z,2.00
2022-11-23T22:46:48.349Z,1.85
2022-11-23T22:49:19.574Z,1.95
2022-11-23T22:51:50.302Z,1.95
2022-11-23T22:54:21.236Z,1.95
2022-11-23T22:56:51.921Z,1.77
2022-11-23T22:59:24.903Z,2.00
2022-11-23T23:01:55.537Z,1.80
2022-11-23T23:04:26.399Z,1.80
2022-11-23T23:06:58.196Z,1.80
2022-11-23T23:09:28.057Z,1.63
2022-11-23T23:11:57.935Z,1.73
2022-11-23T23:14:30.269Z,1.65
2022-11-23T23:17:02.943Z,1.70
2022-11-23T23:19:33.964Z,1.85
2022-11-23T23:22:04.153Z,1.85
2022-11-23T23:24:35.316Z,1.80
2022-11-23T23:27:05.589Z,1.70
2022-11-23T23:29:39.433Z,1.85
2022-11-23T23:32:10.167Z,1.90
2022-11-23T23:34:40.475Z,1.88
2022-11-23T23:37:12.787Z,1.85
2022-11-23T23:39:42.941Z,1.67
2022-11-23T23:42:13.030Z,2.10
2022-11-23T23:44:44.777Z,2.05
2022-11-23T23:47:15.328Z,1.85
2022-11-23T23:49:46.064Z,1.65
2022-11-23T23:52:16.648Z,2.17
2022-11-23T23:54:47.139Z,1.90
2022-11-23T23:57:17.681Z,1.83
2022-11-23T23:59:49.895Z,1.90
